Big Trout Lake Airport
CYTL : now visible

Airfield :











YOU CAN JOIN US ON...

 
LOGIN :

Register | Disclaimer

   EN    FR    IT 

 









Legend :    VFR   Marginal VFR   IFR   Intensive IFR   Very Intensive IFR
Visi :
Ceiling :
>= 8 km
>= 3000ft
5 to 8 km
1000 to 3000 ft
1500m to 5 km
500 to 1000 ft
800 to 1500m
200 to 500 ft
< 800m
< 200 ft
Symbols :   Thunderstorms  Fog  Heavy snow  Heavy precipitations  Wind > 20 kt






- Airport Elevation : 729 ft
- IATA code : YTL


CYTL - Big Trout Lake

CURRENT METAR :
  • 161210Z AUTO 03006KT 350V050 9SM SCT005 OVC091 09/09 A2982 RMK SLP109

EXPIRED METARs :
  • 161108Z AUTO 03003KT 320V070 9SM BKN005 OVC091 09/09 A2981 RMK SLP104
  • 161043Z AUTO 03006KT 340V090 9SM FEW005 SCT060 OVC089 09/09 A2980 RMK SLP102
  • 161000Z AUTO 04005KT 360V070 9SM OVC049 10/10 A2979 RMK SLP098
  • 160900Z AUTO 03006KT 360V060 9SM OVC038 11/10 A2978 RMK SLP092
  • 160800Z AUTO 04008KT 9SM OVC034 11/11 A2975 RMK SLP084

TAF AMD TAF CYTL
Valid from the 16 at 11:00 until the 16 at 20:00 UTC


161142Z 1611/1620 01007KT 3SM -RA BR OVC005
TEMPO 1611/1616 P6SM NSW SCT005 OVC090
FM161600 01010KT P6SM BKN040 OVC150
TEMPO 1616/1618 BKN020 OVC040
FM161800 36015KT P6SM SCT030 BKN050 OVC160
BECMG 1619/1620 SCT050 BKN070 RMK FCST BASED ON AUTO OBS. NXT FCST BY 161400Z
CZWG FIR / North America



MET'MAP, your aeronautical weather chart ! - Copyright ORBIFLY December 2007 - Disclaimer

ORBIFLY MET'MAP TEAM :

Programming & Development : Alexandra Zaïnal
Original concept : Baudouin d'Aumeries
Technical & hardware support : Manuel Goepfert
Assistance : Marc-Olivier Méhu




SOURCES & CREDITS :

   NOAA       Earth
Advisory